sensor_id;sensor_type;location;lat;lon;timestamp;pressure;altitude;pressure_sealevel;temperature;humidity
3096;BME280;1558;42.700;23.360;2022-09-09T00:00:46;95509.91;;;18.84;89.65
3096;BME280;1558;42.700;23.360;2022-09-09T00:03:18;95509.91;;;18.84;89.95
3096;BME280;1558;42.700;23.360;2022-09-09T00:05:55;95495.44;;;18.80;90.21
3096;BME280;1558;42.700;23.360;2022-09-09T00:08:35;95506.09;;;18.92;89.82
3096;BME280;1558;42.700;23.360;2022-09-09T00:11:08;95506.03;;;18.85;90.53
3096;BME280;1558;42.700;23.360;2022-09-09T00:13:44;95500.84;;;18.73;90.70
3096;BME280;1558;42.700;23.360;2022-09-09T00:16:17;95504.28;;;18.66;91.22
3096;BME280;1558;42.700;23.360;2022-09-09T00:18:53;95490.94;;;18.58;91.23
3096;BME280;1558;42.700;23.360;2022-09-09T00:21:28;95504.22;;;18.59;91.59
3096;BME280;1558;42.700;23.360;2022-09-09T00:24:00;95496.03;;;18.59;91.24
3096;BME280;1558;42.700;23.360;2022-09-09T00:26:38;95490.56;;;18.59;90.91
3096;BME280;1558;42.700;23.360;2022-09-09T00:29:14;95483.50;;;18.55;91.15
3096;BME280;1558;42.700;23.360;2022-09-09T00:31:47;95474.91;;;18.53;92.24
3096;BME280;1558;42.700;23.360;2022-09-09T00:34:20;95440.25;;;18.23;93.22
3096;BME280;1558;42.700;23.360;2022-09-09T00:36:51;95474.84;;;18.46;94.23
3096;BME280;1558;42.700;23.360;2022-09-09T00:39:25;95468.53;;;18.42;95.17
3096;BME280;1558;42.700;23.360;2022-09-09T00:42:10;95466.16;;;18.37;96.58
3096;BME280;1558;42.700;23.360;2022-09-09T00:44:56;95464.56;;;18.36;98.41
3096;BME280;1558;42.700;23.360;2022-09-09T00:47:44;95460.56;;;18.26;99.55
3096;BME280;1558;42.700;23.360;2022-09-09T00:50:26;95470.31;;;18.23;100.00
3096;BME280;1558;42.700;23.360;2022-09-09T00:53:05;95473.03;;;18.23;100.00
3096;BME280;1558;42.700;23.360;2022-09-09T00:55:45;95468.06;;;18.33;100.00
3096;BME280;1558;42.700;23.360;2022-09-09T00:58:17;95470.75;;;18.29;100.00
3096;BME280;1558;42.700;23.360;2022-09-09T01:00:51;95463.25;;;18.19;100.00
3096;BME280;1558;42.700;23.360;2022-09-09T01:03:32;95441.09;;;17.87;100.00
3096;BME280;1558;42.700;23.360;2022-09-09T01:06:03;95468.22;;;18.06;100.00
3096;BME280;1558;42.700;23.360;2022-09-09T01:08:55;95452.13;;;17.98;100.00
3096;BME280;1558;42.700;23.360;2022-09-09T01:11:33;95460.28;;;17.94;100.00
3096;BME280;1558;42.700;23.360;2022-09-09T01:14:20;95465.41;;;17.99;100.00
3096;BME280;1558;42.700;23.360;2022-09-09T01:16:54;95444.50;;;17.77;100.00
3096;BME280;1558;42.700;23.360;2022-09-09T01:19:32;95448.84;;;17.82;100.00
3096;BME280;1558;42.700;23.360;2022-09-09T01:22:05;95467.63;;;17.90;100.00
3096;BME280;1558;42.700;23.360;2022-09-09T01:24:42;95469.63;;;17.93;100.00
3096;BME280;1558;42.700;23.360;2022-09-09T01:27:15;95468.06;;;17.92;100.00
3096;BME280;1558;42.700;23.360;2022-09-09T01:29:44;95457.09;;;17.89;100.00
3096;BME280;1558;42.700;23.360;2022-09-09T01:32:38;95457.56;;;17.94;100.00
3096;BME280;1558;42.700;23.360;2022-09-09T01:35:08;95471.94;;;17.91;100.00
3096;BME280;1558;42.700;23.360;2022-09-09T01:37:38;95470.03;;;17.95;100.00
3096;BME280;1558;42.700;23.360;2022-09-09T01:40:07;95478.63;;;17.97;100.00
3096;BME280;1558;42.700;23.360;2022-09-09T01:42:37;95489.13;;;17.95;100.00
3096;BME280;1558;42.700;23.360;2022-09-09T01:45:06;95481.72;;;17.96;100.00
3096;BME280;1558;42.700;23.360;2022-09-09T01:47:34;95486.00;;;17.93;100.00
3096;BME280;1558;42.700;23.360;2022-09-09T01:50:03;95465.44;;;17.66;100.00
3096;BME280;1558;42.700;23.360;2022-09-09T01:52:33;95483.50;;;17.78;100.00
3096;BME280;1558;42.700;23.360;2022-09-09T01:55:04;95490.88;;;17.77;100.00
3096;BME280;1558;42.700;23.360;2022-09-09T01:57:38;95490.59;;;17.86;100.00
3096;BME280;1558;42.700;23.360;2022-09-09T02:00:11;95496.00;;;17.82;100.00
3096;BME280;1558;42.700;23.360;2022-09-09T02:02:45;95459.97;;;17.66;100.00
3096;BME280;1558;42.700;23.360;2022-09-09T02:05:25;95484.63;;;17.73;100.00
3096;BME280;1558;42.700;23.360;2022-09-09T02:08:00;95492.59;;;17.59;100.00
3096;BME280;1558;42.700;23.360;2022-09-09T02:10:33;95489.34;;;17.50;100.00
3096;BME280;1558;42.700;23.360;2022-09-09T02:13:08;95473.66;;;17.40;100.00
3096;BME280;1558;42.700;23.360;2022-09-09T02:15:44;95483.88;;;17.50;100.00
3096;BME280;1558;42.700;23.360;2022-09-09T02:18:18;95460.44;;;17.45;100.00
3096;BME280;1558;42.700;23.360;2022-09-09T02:20:50;95438.47;;;17.31;100.00
3096;BME280;1558;42.700;23.360;2022-09-09T02:23:19;95414.75;;;17.06;100.00
3096;BME280;1558;42.700;23.360;2022-09-09T02:25:48;95447.28;;;17.21;100.00
3096;BME280;1558;42.700;23.360;2022-09-09T02:28:21;95475.16;;;17.37;100.00
3096;BME280;1558;42.700;23.360;2022-09-09T02:30:51;95430.38;;;17.09;100.00
3096;BME280;1558;42.700;23.360;2022-09-09T02:33:25;95476.31;;;17.36;100.00
3096;BME280;1558;42.700;23.360;2022-09-09T02:35:55;95456.75;;;17.31;100.00
3096;BME280;1558;42.700;23.360;2022-09-09T02:38:29;95428.88;;;17.11;100.00
3096;BME280;1558;42.700;23.360;2022-09-09T02:41:02;95486.63;;;17.50;100.00
3096;BME280;1558;42.700;23.360;2022-09-09T02:43:33;95468.94;;;17.37;100.00
3096;BME280;1558;42.700;23.360;2022-09-09T02:46:08;95493.97;;;17.46;100.00
3096;BME280;1558;42.700;23.360;2022-09-09T02:48:45;95438.16;;;17.07;100.00
3096;BME280;1558;42.700;23.360;2022-09-09T02:51:22;95494.50;;;17.29;100.00
3096;BME280;1558;42.700;23.360;2022-09-09T02:53:58;95494.00;;;17.20;100.00
3096;BME280;1558;42.700;23.360;2022-09-09T02:56:30;95488.88;;;17.15;100.00
3096;BME280;1558;42.700;23.360;2022-09-09T02:59:04;95493.41;;;17.04;100.00
3096;BME280;1558;42.700;23.360;2022-09-09T03:01:32;95486.66;;;16.98;100.00
3096;BME280;1558;42.700;23.360;2022-09-09T03:04:02;95484.84;;;17.05;100.00
3096;BME280;1558;42.700;23.360;2022-09-09T03:06:31;95496.44;;;16.99;100.00
3096;BME280;1558;42.700;23.360;2022-09-09T03:08:59;95497.94;;;16.96;100.00
3096;BME280;1558;42.700;23.360;2022-09-09T03:11:29;95492.88;;;16.95;100.00
3096;BME280;1558;42.700;23.360;2022-09-09T03:13:56;95499.66;;;16.81;100.00
3096;BME280;1558;42.700;23.360;2022-09-09T03:16:26;95493.91;;;16.86;100.00
3096;BME280;1558;42.700;23.360;2022-09-09T03:18:54;95494.22;;;16.81;100.00
3096;BME280;1558;42.700;23.360;2022-09-09T03:21:21;95490.78;;;16.84;100.00
3096;BME280;1558;42.700;23.360;2022-09-09T03:23:49;95500.84;;;16.80;100.00
3096;BME280;1558;42.700;23.360;2022-09-09T03:26:17;95487.88;;;16.74;100.00
3096;BME280;1558;42.700;23.360;2022-09-09T03:28:45;95479.53;;;16.63;100.00
3096;BME280;1558;42.700;23.360;2022-09-09T03:31:13;95493.63;;;16.69;100.00
3096;BME280;1558;42.700;23.360;2022-09-09T03:33:43;95488.50;;;16.64;100.00
3096;BME280;1558;42.700;23.360;2022-09-09T03:36:11;95493.59;;;16.65;100.00
3096;BME280;1558;42.700;23.360;2022-09-09T03:38:39;95496.72;;;16.67;100.00
3096;BME280;1558;42.700;23.360;2022-09-09T03:41:07;95425.22;;;16.25;100.00
3096;BME280;1558;42.700;23.360;2022-09-09T03:43:35;95491.38;;;16.74;100.00
3096;BME280;1558;42.700;23.360;2022-09-09T03:46:04;95482.91;;;16.79;100.00
3096;BME280;1558;42.700;23.360;2022-09-09T03:48:32;95485.44;;;16.69;100.00
3096;BME280;1558;42.700;23.360;2022-09-09T03:51:01;95499.81;;;16.66;100.00
3096;BME280;1558;42.700;23.360;2022-09-09T03:53:29;95498.22;;;16.65;100.00
3096;BME280;1558;42.700;23.360;2022-09-09T03:55:58;95502.47;;;16.62;100.00
3096;BME280;1558;42.700;23.360;2022-09-09T03:58:27;95502.59;;;16.69;100.00
3096;BME280;1558;42.700;23.360;2022-09-09T04:00:56;95502.28;;;16.74;100.00
3096;BME280;1558;42.700;23.360;2022-09-09T04:03:25;95503.97;;;16.82;100.00
3096;BME280;1558;42.700;23.360;2022-09-09T04:05:55;95494.41;;;16.69;100.00
3096;BME280;1558;42.700;23.360;2022-09-09T04:08:25;95496.41;;;16.72;100.00
3096;BME280;1558;42.700;23.360;2022-09-09T04:10:53;95510.47;;;17.01;100.00
3096;BME280;1558;42.700;23.360;2022-09-09T04:13:25;95482.38;;;16.97;100.00
3096;BME280;1558;42.700;23.360;2022-09-09T04:15:55;95503.78;;;17.21;100.00
3096;BME280;1558;42.700;23.360;2022-09-09T04:18:23;95470.97;;;17.14;100.00
3096;BME280;1558;42.700;23.360;2022-09-09T04:20:52;95503.06;;;17.27;100.00
3096;BME280;1558;42.700;23.360;2022-09-09T04:23:21;95499.16;;;17.25;100.00
3096;BME280;1558;42.700;23.360;2022-09-09T04:25:53;95489.59;;;17.12;100.00
3096;BME280;1558;42.700;23.360;2022-09-09T04:28:23;95461.09;;;17.06;100.00
3096;BME280;1558;42.700;23.360;2022-09-09T04:30:51;95509.59;;;17.49;100.00
3096;BME280;1558;42.700;23.360;2022-09-09T04:33:20;95491.88;;;17.62;100.00
3096;BME280;1558;42.700;23.360;2022-09-09T04:35:49;95501.22;;;17.94;100.00
3096;BME280;1558;42.700;23.360;2022-09-09T04:38:20;95504.25;;;18.22;100.00
3096;BME280;1558;42.700;23.360;2022-09-09T04:40:50;95493.34;;;18.22;100.00
3096;BME280;1558;42.700;23.360;2022-09-09T04:43:22;95502.56;;;18.48;100.00
3096;BME280;1558;42.700;23.360;2022-09-09T04:45:52;95515.03;;;18.89;100.00
3096;BME280;1558;42.700;23.360;2022-09-09T04:48:20;95450.72;;;18.55;100.00
3096;BME280;1558;42.700;23.360;2022-09-09T04:50:56;95489.25;;;18.06;98.66
3096;BME280;1558;42.700;23.360;2022-09-09T04:53:24;95501.75;;;17.74;100.00
3096;BME280;1558;42.700;23.360;2022-09-09T04:55:53;95494.81;;;17.80;100.00
3096;BME280;1558;42.700;23.360;2022-09-09T04:58:29;95499.28;;;18.35;100.00
3096;BME280;1558;42.700;23.360;2022-09-09T05:01:04;95495.59;;;19.05;98.42
3096;BME280;1558;42.700;23.360;2022-09-09T05:03:32;95491.19;;;19.44;93.82
3096;BME280;1558;42.700;23.360;2022-09-09T05:06:05;95498.41;;;19.84;90.83
3096;BME280;1558;42.700;23.360;2022-09-09T05:08:33;95486.00;;;20.21;88.18
3096;BME280;1558;42.700;23.360;2022-09-09T05:11:01;95470.78;;;20.31;85.04
3096;BME280;1558;42.700;23.360;2022-09-09T05:13:30;95485.69;;;20.51;82.96
3096;BME280;1558;42.700;23.360;2022-09-09T05:16:01;95482.91;;;20.27;84.15
3096;BME280;1558;42.700;23.360;2022-09-09T05:18:29;95479.44;;;20.68;84.42
3096;BME280;1558;42.700;23.360;2022-09-09T05:20:58;95485.31;;;21.09;82.42
3096;BME280;1558;42.700;23.360;2022-09-09T05:23:27;95486.84;;;21.35;81.08
3096;BME280;1558;42.700;23.360;2022-09-09T05:25:56;95487.53;;;21.74;79.83
3096;BME280;1558;42.700;23.360;2022-09-09T05:28:24;95472.53;;;22.00;77.78
3096;BME280;1558;42.700;23.360;2022-09-09T05:30:58;95476.97;;;22.42;76.07
3096;BME280;1558;42.700;23.360;2022-09-09T05:33:27;95476.31;;;22.85;75.01
3096;BME280;1558;42.700;23.360;2022-09-09T05:35:57;95476.53;;;23.05;73.56
3096;BME280;1558;42.700;23.360;2022-09-09T05:38:25;95475.66;;;23.15;71.66
3096;BME280;1558;42.700;23.360;2022-09-09T05:40:54;95482.63;;;23.23;71.83
3096;BME280;1558;42.700;23.360;2022-09-09T05:43:24;95477.78;;;22.97;71.14
3096;BME280;1558;42.700;23.360;2022-09-09T05:46:04;95484.84;;;22.40;72.74
3096;BME280;1558;42.700;23.360;2022-09-09T05:48:33;95485.47;;;22.68;72.68
3096;BME280;1558;42.700;23.360;2022-09-09T05:51:02;95483.75;;;22.85;72.49
3096;BME280;1558;42.700;23.360;2022-09-09T05:53:30;95483.38;;;22.86;71.15
3096;BME280;1558;42.700;23.360;2022-09-09T05:56:02;95487.50;;;23.09;71.14
3096;BME280;1558;42.700;23.360;2022-09-09T05:58:31;95490.53;;;23.21;70.25
3096;BME280;1558;42.700;23.360;2022-09-09T06:01:06;95452.50;;;23.09;67.79
3096;BME280;1558;42.700;23.360;2022-09-09T06:03:35;95497.28;;;23.58;67.11
3096;BME280;1558;42.700;23.360;2022-09-09T06:06:04;95501.06;;;24.04;65.89
3096;BME280;1558;42.700;23.360;2022-09-09T06:08:33;95506.00;;;24.20;65.15
3096;BME280;1558;42.700;23.360;2022-09-09T06:11:04;95505.72;;;24.41;64.28
3096;BME280;1558;42.700;23.360;2022-09-09T06:13:33;95502.31;;;24.60;62.39
3096;BME280;1558;42.700;23.360;2022-09-09T06:16:03;95476.41;;;24.24;60.55
3096;BME280;1558;42.700;23.360;2022-09-09T06:18:31;95501.31;;;24.17;60.21
3096;BME280;1558;42.700;23.360;2022-09-09T06:21:00;95491.69;;;24.85;58.58
3096;BME280;1558;42.700;23.360;2022-09-09T06:23:30;95475.47;;;24.61;58.43
3096;BME280;1558;42.700;23.360;2022-09-09T06:26:04;95505.13;;;24.83;58.55
3096;BME280;1558;42.700;23.360;2022-09-09T06:28:32;95511.66;;;24.66;58.74
3096;BME280;1558;42.700;23.360;2022-09-09T06:31:02;95509.03;;;24.56;58.56
3096;BME280;1558;42.700;23.360;2022-09-09T06:33:33;95508.75;;;24.50;58.95
3096;BME280;1558;42.700;23.360;2022-09-09T06:36:02;95510.66;;;24.83;58.34
3096;BME280;1558;42.700;23.360;2022-09-09T06:38:30;95499.97;;;25.09;58.02
3096;BME280;1558;42.700;23.360;2022-09-09T06:40:59;95491.81;;;25.02;56.96
3096;BME280;1558;42.700;23.360;2022-09-09T06:43:29;95481.78;;;24.61;58.60
3096;BME280;1558;42.700;23.360;2022-09-09T06:45:58;95463.59;;;25.14;57.14
3096;BME280;1558;42.700;23.360;2022-09-09T06:48:27;95472.84;;;25.04;57.27
3096;BME280;1558;42.700;23.360;2022-09-09T06:51:05;95474.88;;;25.46;57.54
3096;BME280;1558;42.700;23.360;2022-09-09T06:53:34;95486.41;;;25.64;56.31
3096;BME280;1558;42.700;23.360;2022-09-09T06:56:17;95506.66;;;25.77;56.04
3096;BME280;1558;42.700;23.360;2022-09-09T06:58:46;95495.19;;;26.38;54.50
3096;BME280;1558;42.700;23.360;2022-09-09T07:01:16;95510.88;;;26.80;53.34
3096;BME280;1558;42.700;23.360;2022-09-09T07:03:46;95502.41;;;26.67;53.44
3096;BME280;1558;42.700;23.360;2022-09-09T07:06:20;95381.06;;;25.39;54.05
3096;BME280;1558;42.700;23.360;2022-09-09T07:08:49;95503.19;;;25.73;54.79
3096;BME280;1558;42.700;23.360;2022-09-09T07:11:24;95502.41;;;25.53;55.25
3096;BME280;1558;42.700;23.360;2022-09-09T07:13:54;95504.56;;;26.04;55.24
3096;BME280;1558;42.700;23.360;2022-09-09T07:16:22;95468.44;;;26.67;53.25
3096;BME280;1558;42.700;23.360;2022-09-09T07:18:51;95495.13;;;26.93;52.45
3096;BME280;1558;42.700;23.360;2022-09-09T07:21:26;95497.13;;;26.57;52.20
3096;BME280;1558;42.700;23.360;2022-09-09T07:23:54;95473.63;;;26.09;53.27
3096;BME280;1558;42.700;23.360;2022-09-09T07:26:24;95487.53;;;26.61;52.72
3096;BME280;1558;42.700;23.360;2022-09-09T07:28:53;95479.09;;;26.84;51.82
3096;BME280;1558;42.700;23.360;2022-09-09T07:31:23;95482.47;;;27.08;51.28
3096;BME280;1558;42.700;23.360;2022-09-09T07:33:53;95496.69;;;27.10;50.86
3096;BME280;1558;42.700;23.360;2022-09-09T07:36:22;95448.31;;;26.82;51.10
3096;BME280;1558;42.700;23.360;2022-09-09T07:38:57;95487.94;;;27.12;51.54
3096;BME280;1558;42.700;23.360;2022-09-09T07:41:28;95475.41;;;27.07;50.79
3096;BME280;1558;42.700;23.360;2022-09-09T07:43:56;95469.56;;;26.69;51.51
3096;BME280;1558;42.700;23.360;2022-09-09T07:46:26;95496.16;;;27.31;51.16
3096;BME280;1558;42.700;23.360;2022-09-09T07:48:55;95381.16;;;27.39;50.07
3096;BME280;1558;42.700;23.360;2022-09-09T07:51:25;95487.78;;;28.75;48.44
3096;BME280;1558;42.700;23.360;2022-09-09T07:53:58;95494.00;;;28.66;48.51
3096;BME280;1558;42.700;23.360;2022-09-09T07:56:27;95488.13;;;28.64;48.33
3096;BME280;1558;42.700;23.360;2022-09-09T07:58:56;95492.22;;;29.23;46.92
3096;BME280;1558;42.700;23.360;2022-09-09T08:01:28;95490.59;;;29.47;46.03
3096;BME280;1558;42.700;23.360;2022-09-09T08:03:58;95481.81;;;29.48;46.63
3096;BME280;1558;42.700;23.360;2022-09-09T08:06:29;95479.56;;;28.71;46.61
3096;BME280;1558;42.700;23.360;2022-09-09T08:08:58;95491.22;;;29.17;46.02
3096;BME280;1558;42.700;23.360;2022-09-09T08:11:28;95487.53;;;29.20;46.04
3096;BME280;1558;42.700;23.360;2022-09-09T08:14:03;95479.66;;;28.93;45.69
3096;BME280;1558;42.700;23.360;2022-09-09T08:16:33;95486.34;;;28.83;46.83
3096;BME280;1558;42.700;23.360;2022-09-09T08:19:04;95488.56;;;28.63;46.66
3096;BME280;1558;42.700;23.360;2022-09-09T08:21:32;95485.28;;;28.39;48.04
3096;BME280;1558;42.700;23.360;2022-09-09T08:24:01;95441.19;;;28.16;47.63
3096;BME280;1558;42.700;23.360;2022-09-09T08:26:33;95466.44;;;27.77;48.25
3096;BME280;1558;42.700;23.360;2022-09-09T08:29:03;95495.66;;;28.10;48.42
3096;BME280;1558;42.700;23.360;2022-09-09T08:31:33;95489.00;;;28.61;47.58
3096;BME280;1558;42.700;23.360;2022-09-09T08:34:02;95487.53;;;28.69;47.36
3096;BME280;1558;42.700;23.360;2022-09-09T08:36:32;95478.16;;;28.26;48.37
3096;BME280;1558;42.700;23.360;2022-09-09T08:39:03;95484.25;;;27.92;48.77
3096;BME280;1558;42.700;23.360;2022-09-09T08:41:42;95467.72;;;27.88;48.75
3096;BME280;1558;42.700;23.360;2022-09-09T08:44:22;95475.66;;;27.74;49.08
3096;BME280;1558;42.700;23.360;2022-09-09T08:47:00;95469.78;;;27.72;48.91
3096;BME280;1558;42.700;23.360;2022-09-09T08:49:57;95470.13;;;27.74;48.94
3096;BME280;1558;42.700;23.360;2022-09-09T08:52:29;95475.72;;;28.28;48.38
3096;BME280;1558;42.700;23.360;2022-09-09T08:57:51;95463.25;;;28.07;48.53
3096;BME280;1558;42.700;23.360;2022-09-09T09:00:20;95457.22;;;28.88;48.02
3096;BME280;1558;42.700;23.360;2022-09-09T09:02:54;95467.69;;;29.43;46.96
3096;BME280;1558;42.700;23.360;2022-09-09T09:05:30;95458.81;;;29.70;45.69
3096;BME280;1558;42.700;23.360;2022-09-09T09:08:08;95466.88;;;29.21;45.96
3096;BME280;1558;42.700;23.360;2022-09-09T09:10:46;95452.47;;;28.75;46.71
3096;BME280;1558;42.700;23.360;2022-09-09T09:13:18;95467.75;;;29.05;46.22
3096;BME280;1558;42.700;23.360;2022-09-09T09:15:52;95455.72;;;29.68;45.09
3096;BME280;1558;42.700;23.360;2022-09-09T09:18:23;95459.91;;;30.06;44.28
3096;BME280;1558;42.700;23.360;2022-09-09T09:20:58;95461.91;;;30.89;43.49
3096;BME280;1558;42.700;23.360;2022-09-09T09:23:35;95430.47;;;30.49;43.59
3096;BME280;1558;42.700;23.360;2022-09-09T09:26:10;95458.72;;;30.17;43.72
3096;BME280;1558;42.700;23.360;2022-09-09T09:28:39;95452.72;;;29.62;44.48
3096;BME280;1558;42.700;23.360;2022-09-09T09:31:10;95460.19;;;29.06;46.79
3096;BME280;1558;42.700;23.360;2022-09-09T09:33:44;95424.56;;;28.54;46.87
3096;BME280;1558;42.700;23.360;2022-09-09T09:36:14;95460.78;;;28.63;46.71
3096;BME280;1558;42.700;23.360;2022-09-09T09:38:53;95455.84;;;28.16;47.75
3096;BME280;1558;42.700;23.360;2022-09-09T09:41:43;95450.41;;;27.56;48.09
3096;BME280;1558;42.700;23.360;2022-09-09T09:44:23;95446.75;;;27.59;49.92
3096;BME280;1558;42.700;23.360;2022-09-09T09:46:51;95443.13;;;27.74;49.23
3096;BME280;1558;42.700;23.360;2022-09-09T09:49:20;95439.41;;;27.81;49.02
3096;BME280;1558;42.700;23.360;2022-09-09T09:51:48;95438.50;;;27.84;49.09
3096;BME280;1558;42.700;23.360;2022-09-09T09:54:20;95428.06;;;27.46;49.50
3096;BME280;1558;42.700;23.360;2022-09-09T09:56:51;95430.00;;;27.17;49.81
3096;BME280;1558;42.700;23.360;2022-09-09T09:59:21;95424.31;;;27.08;50.54
3096;BME280;1558;42.700;23.360;2022-09-09T10:02:19;95427.13;;;27.37;50.21
3096;BME280;1558;42.700;23.360;2022-09-09T10:05:00;95425.97;;;27.50;50.04
3096;BME280;1558;42.700;23.360;2022-09-09T10:07:29;95422.25;;;27.57;50.05
3096;BME280;1558;42.700;23.360;2022-09-09T10:09:57;95416.00;;;27.82;50.40
3096;BME280;1558;42.700;23.360;2022-09-09T10:12:38;95438.13;;;27.98;50.01
3096;BME280;1558;42.700;23.360;2022-09-09T10:15:26;95401.06;;;27.34;50.89
3096;BME280;1558;42.700;23.360;2022-09-09T10:18:01;95439.06;;;27.34;52.23
3096;BME280;1558;42.700;23.360;2022-09-09T10:20:42;95445.41;;;27.34;52.71
3096;BME280;1558;42.700;23.360;2022-09-09T10:23:23;95443.34;;;27.38;52.18
3096;BME280;1558;42.700;23.360;2022-09-09T10:26:16;95440.59;;;27.38;51.86
3096;BME280;1558;42.700;23.360;2022-09-09T10:29:02;95445.09;;;27.16;52.32
3096;BME280;1558;42.700;23.360;2022-09-09T10:31:38;95441.13;;;27.01;51.94
3096;BME280;1558;42.700;23.360;2022-09-09T10:34:19;95436.63;;;26.75;52.82
3096;BME280;1558;42.700;23.360;2022-09-09T10:36:57;95441.09;;;26.69;53.23
3096;BME280;1558;42.700;23.360;2022-09-09T10:39:33;95448.78;;;26.61;53.60
3096;BME280;1558;42.700;23.360;2022-09-09T10:42:09;95443.97;;;26.81;53.74
3096;BME280;1558;42.700;23.360;2022-09-09T10:44:55;95435.41;;;26.92;53.31
3096;BME280;1558;42.700;23.360;2022-09-09T10:47:39;95418.09;;;26.72;53.63
3096;BME280;1558;42.700;23.360;2022-09-09T10:50:44;95443.94;;;26.65;54.10
3096;BME280;1558;42.700;23.360;2022-09-09T10:53:41;95445.56;;;26.63;54.59
3096;BME280;1558;42.700;23.360;2022-09-09T10:56:16;95452.84;;;26.73;54.62
3096;BME280;1558;42.700;23.360;2022-09-09T10:58:49;95447.41;;;26.69;54.28
3096;BME280;1558;42.700;23.360;2022-09-09T11:01:22;95433.47;;;26.57;54.95
3096;BME280;1558;42.700;23.360;2022-09-09T11:03:54;95446.00;;;26.45;55.08
3096;BME280;1558;42.700;23.360;2022-09-09T11:06:30;95443.41;;;26.54;55.31
3096;BME280;1558;42.700;23.360;2022-09-09T11:09:01;95445.84;;;26.52;55.29
3096;BME280;1558;42.700;23.360;2022-09-09T11:11:33;95435.34;;;26.44;55.90
3096;BME280;1558;42.700;23.360;2022-09-09T11:14:10;95445.38;;;26.38;56.93
3096;BME280;1558;42.700;23.360;2022-09-09T11:16:44;95421.94;;;26.06;56.58
3096;BME280;1558;42.700;23.360;2022-09-09T11:19:17;95431.91;;;26.40;56.94
3096;BME280;1558;42.700;23.360;2022-09-09T11:21:49;95390.72;;;26.42;57.27
3096;BME280;1558;42.700;23.360;2022-09-09T11:24:23;95429.06;;;27.08;56.24
3096;BME280;1558;42.700;23.360;2022-09-09T11:26:55;95427.50;;;27.23;54.91
3096;BME280;1558;42.700;23.360;2022-09-09T11:29:45;95422.56;;;27.30;54.28
3096;BME280;1558;42.700;23.360;2022-09-09T11:35:25;95360.38;;;26.86;54.26
3096;BME280;1558;42.700;23.360;2022-09-09T11:38:15;95421.69;;;27.17;54.44
3096;BME280;1558;42.700;23.360;2022-09-09T11:40:45;95384.03;;;27.20;54.68
3096;BME280;1558;42.700;23.360;2022-09-09T11:43:23;95393.72;;;27.28;54.62
3096;BME280;1558;42.700;23.360;2022-09-09T11:45:54;95379.94;;;27.24;54.58
3096;BME280;1558;42.700;23.360;2022-09-09T11:48:32;95390.88;;;27.31;55.15
3096;BME280;1558;42.700;23.360;2022-09-09T11:51:04;95370.88;;;27.24;54.57
3096;BME280;1558;42.700;23.360;2022-09-09T11:53:48;95365.16;;;27.15;55.28
3096;BME280;1558;42.700;23.360;2022-09-09T11:56:25;95358.34;;;27.19;56.09
3096;BME280;1558;42.700;23.360;2022-09-09T11:58:57;95356.78;;;27.47;55.55
3096;BME280;1558;42.700;23.360;2022-09-09T12:01:29;95361.22;;;27.98;54.81
3096;BME280;1558;42.700;23.360;2022-09-09T12:04:26;95364.03;;;28.74;53.80
3096;BME280;1558;42.700;23.360;2022-09-09T12:06:58;95347.78;;;29.19;52.27
3096;BME280;1558;42.700;23.360;2022-09-09T12:09:43;95355.06;;;29.38;51.21
3096;BME280;1558;42.700;23.360;2022-09-09T12:12:26;95360.25;;;29.71;49.90
3096;BME280;1558;42.700;23.360;2022-09-09T12:15:00;95328.88;;;28.93;50.83
3096;BME280;1558;42.700;23.360;2022-09-09T12:17:31;95347.31;;;28.87;51.41
3096;BME280;1558;42.700;23.360;2022-09-09T12:20:06;95337.59;;;28.44;52.73
3096;BME280;1558;42.700;23.360;2022-09-09T12:22:44;95347.16;;;28.18;53.75
3096;BME280;1558;42.700;23.360;2022-09-09T12:25:23;95329.19;;;28.10;53.69
3096;BME280;1558;42.700;23.360;2022-09-09T12:28:03;95344.81;;;28.29;53.04
3096;BME280;1558;42.700;23.360;2022-09-09T12:30:39;95342.34;;;28.81;53.16
3096;BME280;1558;42.700;23.360;2022-09-09T12:33:11;95323.78;;;29.13;51.23
3096;BME280;1558;42.700;23.360;2022-09-09T12:35:44;95326.59;;;29.56;50.84
3096;BME280;1558;42.700;23.360;2022-09-09T12:38:18;95327.13;;;29.64;50.82
3096;BME280;1558;42.700;23.360;2022-09-09T12:40:55;95328.28;;;29.32;51.64
3096;BME280;1558;42.700;23.360;2022-09-09T12:43:25;95301.13;;;29.14;52.13
3096;BME280;1558;42.700;23.360;2022-09-09T12:45:56;95286.41;;;28.92;51.62
3096;BME280;1558;42.700;23.360;2022-09-09T12:48:33;95315.31;;;28.95;53.09
3096;BME280;1558;42.700;23.360;2022-09-09T12:51:07;95278.44;;;28.22;53.63
3096;BME280;1558;42.700;23.360;2022-09-09T12:53:41;95310.41;;;28.39;54.18
3096;BME280;1558;42.700;23.360;2022-09-09T12:56:19;95312.19;;;28.08;54.00
3096;BME280;1558;42.700;23.360;2022-09-09T12:58:49;95283.47;;;28.02;54.63
3096;BME280;1558;42.700;23.360;2022-09-09T13:01:22;95304.75;;;28.30;54.65
3096;BME280;1558;42.700;23.360;2022-09-09T13:03:52;95296.06;;;28.53;53.51
3096;BME280;1558;42.700;23.360;2022-09-09T13:06:26;95265.91;;;27.80;53.46
3096;BME280;1558;42.700;23.360;2022-09-09T13:08:56;95300.63;;;27.97;54.16
3096;BME280;1558;42.700;23.360;2022-09-09T13:11:29;95287.34;;;28.04;54.59
3096;BME280;1558;42.700;23.360;2022-09-09T13:13:58;95173.75;;;27.76;54.84
3096;BME280;1558;42.700;23.360;2022-09-09T13:16:28;95293.97;;;28.92;53.63
3096;BME280;1558;42.700;23.360;2022-09-09T13:19:00;95294.56;;;29.08;53.75
3096;BME280;1558;42.700;23.360;2022-09-09T13:21:34;95285.91;;;29.19;53.31
3096;BME280;1558;42.700;23.360;2022-09-09T13:24:03;95288.41;;;29.26;53.23
3096;BME280;1558;42.700;23.360;2022-09-09T13:26:34;95282.22;;;28.88;52.79
3096;BME280;1558;42.700;23.360;2022-09-09T13:29:15;95277.72;;;28.68;53.12
3096;BME280;1558;42.700;23.360;2022-09-09T13:31:45;95224.28;;;28.17;54.20
3096;BME280;1558;42.700;23.360;2022-09-09T13:34:14;95269.63;;;28.61;54.86
3096;BME280;1558;42.700;23.360;2022-09-09T13:36:59;95233.22;;;28.59;53.85
3096;BME280;1558;42.700;23.360;2022-09-09T13:39:29;95268.50;;;28.59;54.73
3096;BME280;1558;42.700;23.360;2022-09-09T13:41:57;95268.44;;;28.37;53.65
3096;BME280;1558;42.700;23.360;2022-09-09T13:44:27;95273.03;;;28.06;54.28